sensor_id;sensor_type;location;lat;lon;timestamp;P1;durP1;ratioP1;P2;durP2;ratioP2
5916;SDS011;2984;42.656;23.300;2022-07-06T00:02:03;7.60;;;6.93;;
5916;SDS011;2984;42.656;23.300;2022-07-06T00:04:32;7.03;;;6.25;;
5916;SDS011;2984;42.656;23.300;2022-07-06T00:07:01;5.15;;;4.57;;
5916;SDS011;2984;42.656;23.300;2022-07-06T00:09:30;5.97;;;5.38;;
5916;SDS011;2984;42.656;23.300;2022-07-06T00:11:58;6.50;;;5.18;;
5916;SDS011;2984;42.656;23.300;2022-07-06T00:14:27;4.57;;;4.22;;
5916;SDS011;2984;42.656;23.300;2022-07-06T00:16:56;4.68;;;4.38;;
5916;SDS011;2984;42.656;23.300;2022-07-06T00:19:27;4.03;;;3.83;;
5916;SDS011;2984;42.656;23.300;2022-07-06T00:21:56;8.90;;;4.90;;
5916;SDS011;2984;42.656;23.300;2022-07-06T00:24:25;4.95;;;4.65;;
5916;SDS011;2984;42.656;23.300;2022-07-06T00:26:54;4.38;;;4.07;;
5916;SDS011;2984;42.656;23.300;2022-07-06T00:29:22;5.22;;;4.43;;
5916;SDS011;2984;42.656;23.300;2022-07-06T00:31:51;4.18;;;3.88;;
5916;SDS011;2984;42.656;23.300;2022-07-06T00:34:20;4.57;;;4.20;;
5916;SDS011;2984;42.656;23.300;2022-07-06T00:36:51;4.13;;;3.83;;
5916;SDS011;2984;42.656;23.300;2022-07-06T00:39:20;4.38;;;3.97;;
5916;SDS011;2984;42.656;23.300;2022-07-06T00:41:54;3.67;;;3.22;;
5916;SDS011;2984;42.656;23.300;2022-07-06T00:44:23;4.38;;;3.90;;
5916;SDS011;2984;42.656;23.300;2022-07-06T00:46:51;4.15;;;3.30;;
5916;SDS011;2984;42.656;23.300;2022-07-06T00:49:20;3.72;;;3.35;;
5916;SDS011;2984;42.656;23.300;2022-07-06T00:52:04;3.95;;;3.65;;
5916;SDS011;2984;42.656;23.300;2022-07-06T00:54:34;3.60;;;3.35;;
5916;SDS011;2984;42.656;23.300;2022-07-06T00:57:04;6.60;;;3.90;;
5916;SDS011;2984;42.656;23.300;2022-07-06T00:59:33;4.47;;;4.10;;
5916;SDS011;2984;42.656;23.300;2022-07-06T01:02:01;4.25;;;3.95;;
5916;SDS011;2984;42.656;23.300;2022-07-06T01:04:30;4.70;;;4.30;;
5916;SDS011;2984;42.656;23.300;2022-07-06T01:07:00;4.35;;;4.00;;
5916;SDS011;2984;42.656;23.300;2022-07-06T01:09:32;4.55;;;4.22;;
5916;SDS011;2984;42.656;23.300;2022-07-06T01:12:01;5.38;;;4.95;;
5916;SDS011;2984;42.656;23.300;2022-07-06T01:14:31;6.22;;;4.63;;
5916;SDS011;2984;42.656;23.300;2022-07-06T01:17:01;3.95;;;3.63;;
5916;SDS011;2984;42.656;23.300;2022-07-06T01:19:30;4.60;;;3.28;;
5916;SDS011;2984;42.656;23.300;2022-07-06T01:22:02;4.00;;;3.60;;
5916;SDS011;2984;42.656;23.300;2022-07-06T01:24:31;3.88;;;3.60;;
5916;SDS011;2984;42.656;23.300;2022-07-06T01:27:03;5.45;;;4.03;;
5916;SDS011;2984;42.656;23.300;2022-07-06T01:29:33;9.93;;;4.22;;
5916;SDS011;2984;42.656;23.300;2022-07-06T01:32:03;4.35;;;4.05;;
5916;SDS011;2984;42.656;23.300;2022-07-06T01:34:32;4.40;;;4.00;;
5916;SDS011;2984;42.656;23.300;2022-07-06T01:37:05;4.80;;;4.38;;
5916;SDS011;2984;42.656;23.300;2022-07-06T01:39:33;4.53;;;4.13;;
5916;SDS011;2984;42.656;23.300;2022-07-06T01:42:03;4.82;;;3.78;;
5916;SDS011;2984;42.656;23.300;2022-07-06T01:44:32;3.78;;;3.50;;
5916;SDS011;2984;42.656;23.300;2022-07-06T01:47:01;4.30;;;4.00;;
5916;SDS011;2984;42.656;23.300;2022-07-06T01:49:30;4.05;;;3.75;;
5916;SDS011;2984;42.656;23.300;2022-07-06T01:51:59;3.35;;;3.15;;
5916;SDS011;2984;42.656;23.300;2022-07-06T01:54:30;3.97;;;3.67;;
5916;SDS011;2984;42.656;23.300;2022-07-06T01:56:59;6.07;;;4.32;;
5916;SDS011;2984;42.656;23.300;2022-07-06T01:59:28;3.80;;;3.50;;
5916;SDS011;2984;42.656;23.300;2022-07-06T02:01:56;4.10;;;3.70;;
5916;SDS011;2984;42.656;23.300;2022-07-06T02:04:26;4.65;;;3.70;;
5916;SDS011;2984;42.656;23.300;2022-07-06T02:06:55;3.90;;;3.70;;
5916;SDS011;2984;42.656;23.300;2022-07-06T02:09:23;3.85;;;3.55;;
5916;SDS011;2984;42.656;23.300;2022-07-06T02:11:55;4.13;;;3.83;;
5916;SDS011;2984;42.656;23.300;2022-07-06T02:14:24;5.20;;;3.58;;
5916;SDS011;2984;42.656;23.300;2022-07-06T02:16:53;3.88;;;3.58;;
5916;SDS011;2984;42.656;23.300;2022-07-06T02:19:21;3.50;;;3.30;;
5916;SDS011;2984;42.656;23.300;2022-07-06T02:21:50;3.50;;;3.20;;
5916;SDS011;2984;42.656;23.300;2022-07-06T02:24:19;3.90;;;3.20;;
5916;SDS011;2984;42.656;23.300;2022-07-06T02:26:47;2.85;;;2.65;;
5916;SDS011;2984;42.656;23.300;2022-07-06T02:29:19;3.55;;;3.25;;
5916;SDS011;2984;42.656;23.300;2022-07-06T02:31:48;3.30;;;3.10;;
5916;SDS011;2984;42.656;23.300;2022-07-06T02:34:16;3.33;;;3.03;;
5916;SDS011;2984;42.656;23.300;2022-07-06T02:36:45;3.53;;;3.22;;
5916;SDS011;2984;42.656;23.300;2022-07-06T02:39:14;3.05;;;2.88;;
5916;SDS011;2984;42.656;23.300;2022-07-06T02:41:42;5.32;;;3.83;;
5916;SDS011;2984;42.656;23.300;2022-07-06T02:44:11;4.05;;;3.13;;
5916;SDS011;2984;42.656;23.300;2022-07-06T02:46:43;4.15;;;3.70;;
5916;SDS011;2984;42.656;23.300;2022-07-06T02:49:12;3.80;;;3.53;;
5916;SDS011;2984;42.656;23.300;2022-07-06T02:51:40;3.00;;;2.80;;
5916;SDS011;2984;42.656;23.300;2022-07-06T02:54:09;3.22;;;2.58;;
5916;SDS011;2984;42.656;23.300;2022-07-06T02:56:38;4.20;;;3.88;;
5916;SDS011;2984;42.656;23.300;2022-07-06T02:59:06;4.32;;;3.97;;
5916;SDS011;2984;42.656;23.300;2022-07-06T03:01:35;3.60;;;3.35;;
5916;SDS011;2984;42.656;23.300;2022-07-06T03:04:06;6.03;;;3.92;;
5916;SDS011;2984;42.656;23.300;2022-07-06T03:06:35;3.22;;;3.03;;
5916;SDS011;2984;42.656;23.300;2022-07-06T03:09:04;4.55;;;4.15;;
5916;SDS011;2984;42.656;23.300;2022-07-06T03:11:33;4.38;;;4.07;;
5916;SDS011;2984;42.656;23.300;2022-07-06T03:14:02;4.10;;;3.80;;
5916;SDS011;2984;42.656;23.300;2022-07-06T03:16:32;3.95;;;3.65;;
5916;SDS011;2984;42.656;23.300;2022-07-06T03:19:01;3.42;;;3.10;;
5916;SDS011;2984;42.656;23.300;2022-07-06T03:21:32;3.90;;;3.50;;
5916;SDS011;2984;42.656;23.300;2022-07-06T03:24:01;3.35;;;2.95;;
5916;SDS011;2984;42.656;23.300;2022-07-06T03:26:29;4.63;;;3.80;;
5916;SDS011;2984;42.656;23.300;2022-07-06T03:28:58;4.55;;;2.38;;
5916;SDS011;2984;42.656;23.300;2022-07-06T03:31:27;1.80;;;1.65;;
5916;SDS011;2984;42.656;23.300;2022-07-06T03:33:56;2.00;;;1.90;;
5916;SDS011;2984;42.656;23.300;2022-07-06T03:36:24;2.78;;;2.03;;
5916;SDS011;2984;42.656;23.300;2022-07-06T03:38:56;2.38;;;2.28;;
5916;SDS011;2984;42.656;23.300;2022-07-06T03:41:24;1.98;;;1.88;;
5916;SDS011;2984;42.656;23.300;2022-07-06T03:43:53;2.78;;;2.58;;
5916;SDS011;2984;42.656;23.300;2022-07-06T03:46:22;2.97;;;2.72;;
5916;SDS011;2984;42.656;23.300;2022-07-06T03:48:50;2.20;;;2.10;;
5916;SDS011;2984;42.656;23.300;2022-07-06T03:51:19;2.25;;;1.90;;
5916;SDS011;2984;42.656;23.300;2022-07-06T03:53:48;2.42;;;2.25;;
5916;SDS011;2984;42.656;23.300;2022-07-06T03:56:20;4.00;;;2.17;;
5916;SDS011;2984;42.656;23.300;2022-07-06T03:58:59;2.58;;;2.45;;
5916;SDS011;2984;42.656;23.300;2022-07-06T04:01:28;2.70;;;1.67;;
5916;SDS011;2984;42.656;23.300;2022-07-06T04:03:57;3.53;;;2.45;;
5916;SDS011;2984;42.656;23.300;2022-07-06T04:06:26;1.95;;;1.85;;
5916;SDS011;2984;42.656;23.300;2022-07-06T04:08:55;2.75;;;1.35;;
5916;SDS011;2984;42.656;23.300;2022-07-06T04:11:26;1.83;;;1.73;;
5916;SDS011;2984;42.656;23.300;2022-07-06T04:13:55;1.52;;;1.42;;
5916;SDS011;2984;42.656;23.300;2022-07-06T04:16:24;5.28;;;2.58;;
5916;SDS011;2984;42.656;23.300;2022-07-06T04:18:52;1.85;;;1.75;;
5916;SDS011;2984;42.656;23.300;2022-07-06T04:21:22;1.42;;;1.27;;
5916;SDS011;2984;42.656;23.300;2022-07-06T04:23:50;1.58;;;1.48;;
5916;SDS011;2984;42.656;23.300;2022-07-06T04:26:19;1.80;;;1.58;;
5916;SDS011;2984;42.656;23.300;2022-07-06T04:28:50;2.28;;;2.03;;
5916;SDS011;2984;42.656;23.300;2022-07-06T04:31:19;3.45;;;2.30;;
5916;SDS011;2984;42.656;23.300;2022-07-06T04:33:48;3.03;;;2.73;;
5916;SDS011;2984;42.656;23.300;2022-07-06T04:36:17;2.55;;;2.35;;
5916;SDS011;2984;42.656;23.300;2022-07-06T04:38:46;2.20;;;2.05;;
5916;SDS011;2984;42.656;23.300;2022-07-06T04:41:15;1.83;;;1.73;;
5916;SDS011;2984;42.656;23.300;2022-07-06T04:43:43;3.10;;;2.87;;
5916;SDS011;2984;42.656;23.300;2022-07-06T04:46:15;1.73;;;1.63;;
5916;SDS011;2984;42.656;23.300;2022-07-06T04:48:44;1.45;;;1.38;;
5916;SDS011;2984;42.656;23.300;2022-07-06T04:51:13;1.92;;;1.83;;
5916;SDS011;2984;42.656;23.300;2022-07-06T04:53:42;2.13;;;1.67;;
5916;SDS011;2984;42.656;23.300;2022-07-06T04:56:10;2.67;;;2.47;;
5916;SDS011;2984;42.656;23.300;2022-07-06T04:58:40;3.67;;;2.97;;
5916;SDS011;2984;42.656;23.300;2022-07-06T05:01:09;2.33;;;2.10;;
5916;SDS011;2984;42.656;23.300;2022-07-06T05:03:40;8.03;;;2.97;;
5916;SDS011;2984;42.656;23.300;2022-07-06T05:06:09;2.47;;;1.88;;
5916;SDS011;2984;42.656;23.300;2022-07-06T05:08:37;6.83;;;3.23;;
5916;SDS011;2984;42.656;23.300;2022-07-06T05:11:06;3.93;;;3.37;;
5916;SDS011;2984;42.656;23.300;2022-07-06T05:13:35;3.37;;;3.13;;
5916;SDS011;2984;42.656;23.300;2022-07-06T05:16:04;4.20;;;3.63;;
5916;SDS011;2984;42.656;23.300;2022-07-06T05:18:33;2.33;;;2.17;;
5916;SDS011;2984;42.656;23.300;2022-07-06T05:21:05;2.03;;;1.93;;
5916;SDS011;2984;42.656;23.300;2022-07-06T05:23:33;7.00;;;4.13;;
5916;SDS011;2984;42.656;23.300;2022-07-06T05:26:02;7.57;;;3.77;;
5916;SDS011;2984;42.656;23.300;2022-07-06T05:28:31;3.37;;;2.97;;
5916;SDS011;2984;42.656;23.300;2022-07-06T05:31:00;3.00;;;2.80;;
5916;SDS011;2984;42.656;23.300;2022-07-06T05:33:29;5.33;;;3.53;;
5916;SDS011;2984;42.656;23.300;2022-07-06T05:35:57;3.67;;;2.53;;
5916;SDS011;2984;42.656;23.300;2022-07-06T05:38:29;4.47;;;4.10;;
5916;SDS011;2984;42.656;23.300;2022-07-06T05:40:58;5.00;;;3.43;;
5916;SDS011;2984;42.656;23.300;2022-07-06T05:43:26;2.87;;;2.57;;
5916;SDS011;2984;42.656;23.300;2022-07-06T05:45:55;5.70;;;2.50;;
5916;SDS011;2984;42.656;23.300;2022-07-06T05:48:24;3.60;;;3.30;;
5916;SDS011;2984;42.656;23.300;2022-07-06T05:51:05;5.23;;;2.00;;
5916;SDS011;2984;42.656;23.300;2022-07-06T05:53:37;5.35;;;3.05;;
5916;SDS011;2984;42.656;23.300;2022-07-06T05:56:05;3.23;;;2.93;;
5916;SDS011;2984;42.656;23.300;2022-07-06T05:58:34;1.10;;;1.10;;
5916;SDS011;2984;42.656;23.300;2022-07-06T06:01:03;4.25;;;3.85;;
5916;SDS011;2984;42.656;23.300;2022-07-06T06:03:32;3.47;;;3.28;;
5916;SDS011;2984;42.656;23.300;2022-07-06T06:06:04;2.70;;;2.50;;
5916;SDS011;2984;42.656;23.300;2022-07-06T06:08:33;2.67;;;2.58;;
5916;SDS011;2984;42.656;23.300;2022-07-06T06:11:04;3.08;;;2.35;;
5916;SDS011;2984;42.656;23.300;2022-07-06T06:13:33;2.60;;;2.40;;
5916;SDS011;2984;42.656;23.300;2022-07-06T06:16:03;4.80;;;2.33;;
5916;SDS011;2984;42.656;23.300;2022-07-06T06:18:32;3.28;;;3.08;;
5916;SDS011;2984;42.656;23.300;2022-07-06T06:21:01;2.47;;;2.25;;
5916;SDS011;2984;42.656;23.300;2022-07-06T06:23:29;2.55;;;2.35;;
5916;SDS011;2984;42.656;23.300;2022-07-06T06:25:58;5.13;;;3.40;;
5916;SDS011;2984;42.656;23.300;2022-07-06T06:28:29;3.88;;;3.47;;
5916;SDS011;2984;42.656;23.300;2022-07-06T06:30:59;5.28;;;3.08;;
5916;SDS011;2984;42.656;23.300;2022-07-06T06:33:28;4.75;;;3.20;;
5916;SDS011;2984;42.656;23.300;2022-07-06T06:35:57;3.63;;;3.22;;
5916;SDS011;2984;42.656;23.300;2022-07-06T06:38:25;5.50;;;3.40;;
5916;SDS011;2984;42.656;23.300;2022-07-06T06:40:55;5.18;;;4.28;;
5916;SDS011;2984;42.656;23.300;2022-07-06T06:43:24;3.85;;;3.55;;
5916;SDS011;2984;42.656;23.300;2022-07-06T06:45:56;3.92;;;3.63;;
5916;SDS011;2984;42.656;23.300;2022-07-06T06:48:24;4.32;;;3.75;;
5916;SDS011;2984;42.656;23.300;2022-07-06T06:50:53;5.53;;;4.93;;
5916;SDS011;2984;42.656;23.300;2022-07-06T06:53:22;4.65;;;4.25;;
5916;SDS011;2984;42.656;23.300;2022-07-06T06:55:58;4.75;;;4.28;;
5916;SDS011;2984;42.656;23.300;2022-07-06T06:58:55;3.58;;;3.28;;
5916;SDS011;2984;42.656;23.300;2022-07-06T07:01:31;5.13;;;4.55;;
5916;SDS011;2984;42.656;23.300;2022-07-06T07:07:26;4.00;;;3.70;;
5916;SDS011;2984;42.656;23.300;2022-07-06T07:10:22;4.35;;;3.42;;
5916;SDS011;2984;42.656;23.300;2022-07-06T07:12:56;4.72;;;3.33;;
5916;SDS011;2984;42.656;23.300;2022-07-06T07:15:25;6.15;;;3.88;;
5916;SDS011;2984;42.656;23.300;2022-07-06T07:18:06;4.53;;;4.13;;
5916;SDS011;2984;42.656;23.300;2022-07-06T07:20:35;5.70;;;3.60;;
5916;SDS011;2984;42.656;23.300;2022-07-06T07:23:13;4.70;;;4.28;;
5916;SDS011;2984;42.656;23.300;2022-07-06T07:25:42;4.80;;;4.30;;
5916;SDS011;2984;42.656;23.300;2022-07-06T07:28:11;6.15;;;3.97;;
5916;SDS011;2984;42.656;23.300;2022-07-06T07:30:40;12.30;;;5.57;;
5916;SDS011;2984;42.656;23.300;2022-07-06T07:33:14;4.28;;;3.97;;
5916;SDS011;2984;42.656;23.300;2022-07-06T07:36:05;7.18;;;5.60;;
5916;SDS011;2984;42.656;23.300;2022-07-06T07:38:35;5.72;;;5.22;;
5916;SDS011;2984;42.656;23.300;2022-07-06T07:41:04;5.07;;;4.68;;
5916;SDS011;2984;42.656;23.300;2022-07-06T07:43:36;4.05;;;3.75;;
5916;SDS011;2984;42.656;23.300;2022-07-06T07:46:05;5.47;;;4.97;;
5916;SDS011;2984;42.656;23.300;2022-07-06T07:48:57;6.07;;;5.20;;
5916;SDS011;2984;42.656;23.300;2022-07-06T07:51:44;5.88;;;4.78;;
5916;SDS011;2984;42.656;23.300;2022-07-06T07:54:13;3.80;;;3.42;;
5916;SDS011;2984;42.656;23.300;2022-07-06T07:56:49;3.97;;;3.67;;
5916;SDS011;2984;42.656;23.300;2022-07-06T07:59:27;3.38;;;3.10;;
5916;SDS011;2984;42.656;23.300;2022-07-06T08:01:57;2.65;;;2.55;;
5916;SDS011;2984;42.656;23.300;2022-07-06T08:07:47;4.78;;;3.22;;
5916;SDS011;2984;42.656;23.300;2022-07-06T08:10:32;5.03;;;4.57;;
5916;SDS011;2984;42.656;23.300;2022-07-06T08:13:04;4.88;;;4.47;;
5916;SDS011;2984;42.656;23.300;2022-07-06T08:15:33;4.53;;;4.13;;
5916;SDS011;2984;42.656;23.300;2022-07-06T08:18:02;5.95;;;4.43;;
5916;SDS011;2984;42.656;23.300;2022-07-06T08:20:30;4.47;;;3.83;;
5916;SDS011;2984;42.656;23.300;2022-07-06T08:23:02;5.95;;;5.35;;
5916;SDS011;2984;42.656;23.300;2022-07-06T08:25:31;2.83;;;2.55;;
5916;SDS011;2984;42.656;23.300;2022-07-06T08:28:23;5.75;;;3.80;;
5916;SDS011;2984;42.656;23.300;2022-07-06T08:31:03;3.88;;;3.47;;
5916;SDS011;2984;42.656;23.300;2022-07-06T08:33:45;10.57;;;4.55;;
5916;SDS011;2984;42.656;23.300;2022-07-06T08:36:19;4.68;;;3.60;;
5916;SDS011;2984;42.656;23.300;2022-07-06T08:38:55;4.75;;;4.30;;
5916;SDS011;2984;42.656;23.300;2022-07-06T08:41:28;5.50;;;5.00;;
5916;SDS011;2984;42.656;23.300;2022-07-06T08:47:21;4.57;;;3.97;;
5916;SDS011;2984;42.656;23.300;2022-07-06T08:52:47;3.90;;;3.53;;
5916;SDS011;2984;42.656;23.300;2022-07-06T08:55:24;5.13;;;4.63;;
5916;SDS011;2984;42.656;23.300;2022-07-06T09:00:55;5.95;;;4.78;;
5916;SDS011;2984;42.656;23.300;2022-07-06T09:03:25;5.43;;;4.63;;
5916;SDS011;2984;42.656;23.300;2022-07-06T09:05:56;5.43;;;4.53;;
5916;SDS011;2984;42.656;23.300;2022-07-06T09:08:27;4.55;;;4.15;;
5916;SDS011;2984;42.656;23.300;2022-07-06T09:11:03;4.45;;;4.07;;
5916;SDS011;2984;42.656;23.300;2022-07-06T09:13:31;5.93;;;5.07;;
5916;SDS011;2984;42.656;23.300;2022-07-06T09:17:11;6.15;;;5.15;;
5916;SDS011;2984;42.656;23.300;2022-07-06T09:19:20;5.30;;;4.30;;
5916;SDS011;2984;42.656;23.300;2022-07-06T09:22:10;4.53;;;4.22;;
5916;SDS011;2984;42.656;23.300;2022-07-06T09:25:20;4.70;;;4.30;;
5916;SDS011;2984;42.656;23.300;2022-07-06T09:27:52;3.97;;;3.58;;
5916;SDS011;2984;42.656;23.300;2022-07-06T09:30:24;6.15;;;4.63;;
5916;SDS011;2984;42.656;23.300;2022-07-06T09:32:58;5.82;;;4.25;;
5916;SDS011;2984;42.656;23.300;2022-07-06T09:35:29;4.55;;;4.15;;
5916;SDS011;2984;42.656;23.300;2022-07-06T09:38:02;4.05;;;3.75;;
5916;SDS011;2984;42.656;23.300;2022-07-06T09:40:37;6.50;;;4.43;;
5916;SDS011;2984;42.656;23.300;2022-07-06T09:43:11;4.32;;;3.92;;
5916;SDS011;2984;42.656;23.300;2022-07-06T09:45:41;3.83;;;3.50;;
5916;SDS011;2984;42.656;23.300;2022-07-06T09:48:11;5.80;;;4.80;;
5916;SDS011;2984;42.656;23.300;2022-07-06T09:50:44;4.28;;;3.90;;
5916;SDS011;2984;42.656;23.300;2022-07-06T09:53:22;3.83;;;3.53;;
5916;SDS011;2984;42.656;23.300;2022-07-06T09:55:52;6.00;;;5.20;;
5916;SDS011;2984;42.656;23.300;2022-07-06T10:06:18;5.65;;;4.43;;
5916;SDS011;2984;42.656;23.300;2022-07-06T10:11:42;6.88;;;6.18;;
5916;SDS011;2984;42.656;23.300;2022-07-06T10:14:14;4.70;;;4.35;;
5916;SDS011;2984;42.656;23.300;2022-07-06T10:16:46;3.83;;;2.80;;
5916;SDS011;2984;42.656;23.300;2022-07-06T10:19:16;4.45;;;4.05;;
5916;SDS011;2984;42.656;23.300;2022-07-06T10:21:49;3.78;;;3.47;;
5916;SDS011;2984;42.656;23.300;2022-07-06T10:24:19;5.60;;;3.95;;
5916;SDS011;2984;42.656;23.300;2022-07-06T10:26:49;7.10;;;5.60;;
5916;SDS011;2984;42.656;23.300;2022-07-06T10:29:19;5.25;;;4.75;;
5916;SDS011;2984;42.656;23.300;2022-07-06T10:32:03;7.07;;;5.10;;
5916;SDS011;2984;42.656;23.300;2022-07-06T10:34:33;7.90;;;5.45;;
5916;SDS011;2984;42.656;23.300;2022-07-06T10:37:05;4.90;;;4.45;;
5916;SDS011;2984;42.656;23.300;2022-07-06T10:39:35;5.55;;;5.15;;
5916;SDS011;2984;42.656;23.300;2022-07-06T10:45:11;7.10;;;4.95;;
5916;SDS011;2984;42.656;23.300;2022-07-06T10:47:41;5.50;;;5.10;;
5916;SDS011;2984;42.656;23.300;2022-07-06T10:53:24;2.67;;;2.58;;
5916;SDS011;2984;42.656;23.300;2022-07-06T10:55:54;4.65;;;4.10;;
5916;SDS011;2984;42.656;23.300;2022-07-06T10:58:34;4.22;;;3.83;;
5916;SDS011;2984;42.656;23.300;2022-07-06T11:01:20;4.65;;;4.25;;
5916;SDS011;2984;42.656;23.300;2022-07-06T11:07:12;4.38;;;3.95;;
5916;SDS011;2984;42.656;23.300;2022-07-06T11:22:19;4.50;;;4.10;;
5916;SDS011;2984;42.656;23.300;2022-07-06T11:24:49;3.65;;;3.35;;
5916;SDS011;2984;42.656;23.300;2022-07-06T11:33:54;4.03;;;3.67;;
5916;SDS011;2984;42.656;23.300;2022-07-06T11:36:35;5.38;;;4.88;;
5916;SDS011;2984;42.656;23.300;2022-07-06T11:58:31;5.22;;;4.72;;
5916;SDS011;2984;42.656;23.300;2022-07-06T12:01:03;4.30;;;3.97;;
5916;SDS011;2984;42.656;23.300;2022-07-06T12:03:32;3.58;;;3.35;;
5916;SDS011;2984;42.656;23.300;2022-07-06T12:06:01;4.43;;;3.50;;
5916;SDS011;2984;42.656;23.300;2022-07-06T12:08:30;6.55;;;5.95;;
5916;SDS011;2984;42.656;23.300;2022-07-06T12:11:00;4.78;;;4.32;;
5916;SDS011;2984;42.656;23.300;2022-07-06T12:13:42;5.85;;;5.28;;
5916;SDS011;2984;42.656;23.300;2022-07-06T12:16:29;5.82;;;5.28;;
5916;SDS011;2984;42.656;23.300;2022-07-06T12:18:59;3.67;;;3.38;;
5916;SDS011;2984;42.656;23.300;2022-07-06T12:21:28;6.95;;;3.97;;
5916;SDS011;2984;42.656;23.300;2022-07-06T12:23:58;5.55;;;5.05;;
5916;SDS011;2984;42.656;23.300;2022-07-06T12:26:28;5.30;;;4.80;;
5916;SDS011;2984;42.656;23.300;2022-07-06T12:29:39;5.18;;;4.78;;
5916;SDS011;2984;42.656;23.300;2022-07-06T12:32:13;3.53;;;3.22;;
5916;SDS011;2984;42.656;23.300;2022-07-06T12:34:43;5.10;;;4.68;;
5916;SDS011;2984;42.656;23.300;2022-07-06T12:37:21;4.85;;;3.13;;
5916;SDS011;2984;42.656;23.300;2022-07-06T12:40:02;3.95;;;3.65;;
5916;SDS011;2984;42.656;23.300;2022-07-06T12:42:45;3.40;;;3.20;;
5916;SDS011;2984;42.656;23.300;2022-07-06T12:45:25;4.70;;;4.15;;
5916;SDS011;2984;42.656;23.300;2022-07-06T12:48:07;4.10;;;3.80;;
5916;SDS011;2984;42.656;23.300;2022-07-06T12:50:46;3.22;;;2.88;;
5916;SDS011;2984;42.656;23.300;2022-07-06T12:53:25;3.53;;;3.33;;
5916;SDS011;2984;42.656;23.300;2022-07-06T12:58:56;3.53;;;2.92;;
5916;SDS011;2984;42.656;23.300;2022-07-06T13:01:52;3.88;;;3.58;;
5916;SDS011;2984;42.656;23.300;2022-07-06T13:04:24;2.40;;;2.30;;
5916;SDS011;2984;42.656;23.300;2022-07-06T13:06:57;2.70;;;2.60;;
5916;SDS011;2984;42.656;23.300;2022-07-06T13:16:29;2.72;;;2.55;;
5916;SDS011;2984;42.656;23.300;2022-07-06T13:31:12;0.50;;;0.50;;
5916;SDS011;2984;42.656;23.300;2022-07-06T13:36:51;1.52;;;1.52;;
5916;SDS011;2984;42.656;23.300;2022-07-06T13:39:23;2.38;;;2.28;;
5916;SDS011;2984;42.656;23.300;2022-07-06T13:41:52;1.90;;;1.67;;
5916;SDS011;2984;42.656;23.300;2022-07-06T13:44:24;2.60;;;2.50;;
5916;SDS011;2984;42.656;23.300;2022-07-06T13:47:01;2.20;;;2.10;;
5916;SDS011;2984;42.656;23.300;2022-07-06T13:49:33;2.20;;;2.10;;
5916;SDS011;2984;42.656;23.300;2022-07-06T13:52:02;1.98;;;1.88;;
5916;SDS011;2984;42.656;23.300;2022-07-06T13:54:37;2.08;;;1.98;;
5916;SDS011;2984;42.656;23.300;2022-07-06T13:57:07;1.63;;;1.52;;
5916;SDS011;2984;42.656;23.300;2022-07-06T13:59:36;1.15;;;1.10;;
5916;SDS011;2984;42.656;23.300;2022-07-06T14:02:08;1.20;;;1.20;;
5916;SDS011;2984;42.656;23.300;2022-07-06T14:04:36;1.38;;;1.27;;
5916;SDS011;2984;42.656;23.300;2022-07-06T14:07:23;1.98;;;1.52;;
5916;SDS011;2984;42.656;23.300;2022-07-06T14:10:14;1.17;;;1.08;;
5916;SDS011;2984;42.656;23.300;2022-07-06T14:12:56;0.93;;;0.93;;
5916;SDS011;2984;42.656;23.300;2022-07-06T14:15:25;0.70;;;0.70;;
5916;SDS011;2984;42.656;23.300;2022-07-06T14:20:45;1.52;;;1.15;;
5916;SDS011;2984;42.656;23.300;2022-07-06T14:23:36;1.50;;;1.40;;
5916;SDS011;2984;42.656;23.300;2022-07-06T14:26:05;1.77;;;1.25;;
5916;SDS011;2984;42.656;23.300;2022-07-06T14:28:34;1.23;;;1.23;;
5916;SDS011;2984;42.656;23.300;2022-07-06T14:31:05;0.98;;;0.98;;
5916;SDS011;2984;42.656;23.300;2022-07-06T14:36:41;1.30;;;1.30;;
5916;SDS011;2984;42.656;23.300;2022-07-06T14:39:24;1.85;;;1.75;;
5916;SDS011;2984;42.656;23.300;2022-07-06T14:42:03;1.35;;;1.35;;
5916;SDS011;2984;42.656;23.300;2022-07-06T14:50:56;0.95;;;0.95;;
5916;SDS011;2984;42.656;23.300;2022-07-06T14:53:25;1.48;;;1.30;;
5916;SDS011;2984;42.656;23.300;2022-07-06T14:55:56;0.95;;;0.95;;
5916;SDS011;2984;42.656;23.300;2022-07-06T15:01:22;1.30;;;1.30;;
5916;SDS011;2984;42.656;23.300;2022-07-06T15:03:59;1.52;;;1.42;;
5916;SDS011;2984;42.656;23.300;2022-07-06T15:06:34;1.38;;;1.27;;
5916;SDS011;2984;42.656;23.300;2022-07-06T15:09:03;1.42;;;1.33;;
5916;SDS011;2984;42.656;23.300;2022-07-06T15:11:33;2.80;;;1.00;;
5916;SDS011;2984;42.656;23.300;2022-07-06T15:14:10;1.33;;;1.25;;
5916;SDS011;2984;42.656;23.300;2022-07-06T15:16:41;1.70;;;1.60;;
5916;SDS011;2984;42.656;23.300;2022-07-06T15:19:10;1.27;;;1.27;;
5916;SDS011;2984;42.656;23.300;2022-07-06T15:21:42;0.85;;;0.85;;
5916;SDS011;2984;42.656;23.300;2022-07-06T15:24:11;1.10;;;1.10;;
5916;SDS011;2984;42.656;23.300;2022-07-06T15:33:31;1.40;;;1.40;;
5916;SDS011;2984;42.656;23.300;2022-07-06T15:36:30;1.40;;;1.30;;
5916;SDS011;2984;42.656;23.300;2022-07-06T15:39:03;1.60;;;1.50;;
5916;SDS011;2984;42.656;23.300;2022-07-06T15:41:32;1.60;;;1.60;;
5916;SDS011;2984;42.656;23.300;2022-07-06T15:44:00;1.20;;;1.20;;
5916;SDS011;2984;42.656;23.300;2022-07-06T15:46:29;1.27;;;1.27;;
5916;SDS011;2984;42.656;23.300;2022-07-06T15:48:58;0.80;;;0.80;;
5916;SDS011;2984;42.656;23.300;2022-07-06T15:51:27;1.35;;;1.20;;
5916;SDS011;2984;42.656;23.300;2022-07-06T15:53:56;0.80;;;0.80;;
5916;SDS011;2984;42.656;23.300;2022-07-06T15:56:27;0.88;;;0.88;;
5916;SDS011;2984;42.656;23.300;2022-07-06T15:58:56;0.60;;;0.60;;
5916;SDS011;2984;42.656;23.300;2022-07-06T16:01:25;0.95;;;0.95;;
5916;SDS011;2984;42.656;23.300;2022-07-06T16:03:53;1.20;;;1.20;;
5916;SDS011;2984;42.656;23.300;2022-07-06T16:06:22;1.00;;;1.00;;
5916;SDS011;2984;42.656;23.300;2022-07-06T16:08:51;1.20;;;1.20;;
5916;SDS011;2984;42.656;23.300;2022-07-06T16:11:20;1.55;;;1.45;;
5916;SDS011;2984;42.656;23.300;2022-07-06T16:13:52;1.33;;;1.33;;
5916;SDS011;2984;42.656;23.300;2022-07-06T16:16:21;1.10;;;1.10;;
5916;SDS011;2984;42.656;23.300;2022-07-06T16:18:50;0.68;;;0.68;;
5916;SDS011;2984;42.656;23.300;2022-07-06T16:21:19;0.80;;;0.80;;
5916;SDS011;2984;42.656;23.300;2022-07-06T16:23:48;1.02;;;1.02;;
5916;SDS011;2984;42.656;23.300;2022-07-06T16:26:17;1.20;;;1.20;;
5916;SDS011;2984;42.656;23.300;2022-07-06T16:28:45;1.40;;;1.38;;
5916;SDS011;2984;42.656;23.300;2022-07-06T16:31:18;1.10;;;1.10;;
5916;SDS011;2984;42.656;23.300;2022-07-06T16:33:47;1.00;;;1.00;;
5916;SDS011;2984;42.656;23.300;2022-07-06T16:36:16;1.48;;;1.00;;
5916;SDS011;2984;42.656;23.300;2022-07-06T16:38:45;1.10;;;1.10;;
5916;SDS011;2984;42.656;23.300;2022-07-06T16:41:14;0.93;;;0.90;;
5916;SDS011;2984;42.656;23.300;2022-07-06T16:43:43;1.00;;;1.00;;
5916;SDS011;2984;42.656;23.300;2022-07-06T16:46:12;1.27;;;1.27;;
